Terminal Aerodrome Forecast
Issued by NWS

Home | Current Version | Previous Version | Graphics & Text | Print | Product List | Glossary On
Versions: 1 2 3 4 5 6 7 8 9 10 11 12 13 14 15 16 17 18 19 20 21 22 23 24 25 26
083
FTUS45 KGGW 260037 RRA
TAFOLF
TAF
KOLF 260037Z 2601/2624 34006KT P6SM SCT140
     FM260600 00000KT P6SM VCSH BKN130
     FM260900 VRB03KT P6SM BKN140 PROB30 2610/2615 6SM -SHRA OVC025
     FM261800 30007KT P6SM BKN029 PROB30 2618/2624 6SM -SHRA OVC015=

USA.gov is the U.S. government's official web portal to all federal, state and local government web resources and services.